sensor_id;sensor_type;location;lat;lon;timestamp;P1;durP1;ratioP1;P2;durP2;ratioP2
11006;SDS011;8186;57.652;11.968;2024-01-07T00:01:58;11.77;;;3.87;;
11006;SDS011;8186;57.652;11.968;2024-01-07T00:04:27;4.33;;;2.90;;
11006;SDS011;8186;57.652;11.968;2024-01-07T00:06:55;5.53;;;3.27;;
11006;SDS011;8186;57.652;11.968;2024-01-07T00:09:22;3.40;;;2.90;;
11006;SDS011;8186;57.652;11.968;2024-01-07T00:11:49;4.03;;;3.03;;
11006;SDS011;8186;57.652;11.968;2024-01-07T00:14:16;5.53;;;3.37;;
11006;SDS011;8186;57.652;11.968;2024-01-07T00:16:43;4.03;;;3.07;;
11006;SDS011;8186;57.652;11.968;2024-01-07T00:19:10;4.80;;;3.23;;
11006;SDS011;8186;57.652;11.968;2024-01-07T00:21:38;4.33;;;2.90;;
11006;SDS011;8186;57.652;11.968;2024-01-07T00:24:05;5.77;;;3.07;;
11006;SDS011;8186;57.652;11.968;2024-01-07T00:26:33;3.73;;;2.90;;
11006;SDS011;8186;57.652;11.968;2024-01-07T00:28:59;4.00;;;2.33;;
11006;SDS011;8186;57.652;11.968;2024-01-07T00:31:26;3.77;;;2.80;;
11006;SDS011;8186;57.652;11.968;2024-01-07T00:33:53;4.60;;;2.90;;
11006;SDS011;8186;57.652;11.968;2024-01-07T00:36:19;5.37;;;3.33;;
11006;SDS011;8186;57.652;11.968;2024-01-07T00:38:48;3.83;;;3.13;;
11006;SDS011;8186;57.652;11.968;2024-01-07T00:41:14;6.10;;;3.57;;
11006;SDS011;8186;57.652;11.968;2024-01-07T00:43:41;4.33;;;3.17;;
11006;SDS011;8186;57.652;11.968;2024-01-07T00:46:08;4.90;;;3.20;;
11006;SDS011;8186;57.652;11.968;2024-01-07T00:48:35;4.17;;;2.53;;
11006;SDS011;8186;57.652;11.968;2024-01-07T00:51:01;4.57;;;2.90;;
11006;SDS011;8186;57.652;11.968;2024-01-07T00:53:28;5.60;;;2.87;;
11006;SDS011;8186;57.652;11.968;2024-01-07T00:55:56;5.57;;;3.17;;
11006;SDS011;8186;57.652;11.968;2024-01-07T00:58:23;3.37;;;2.60;;
11006;SDS011;8186;57.652;11.968;2024-01-07T01:00:50;4.20;;;3.03;;
11006;SDS011;8186;57.652;11.968;2024-01-07T01:03:19;3.83;;;2.70;;
11006;SDS011;8186;57.652;11.968;2024-01-07T01:05:46;3.83;;;2.77;;
11006;SDS011;8186;57.652;11.968;2024-01-07T01:08:13;3.87;;;3.00;;
11006;SDS011;8186;57.652;11.968;2024-01-07T01:10:39;3.97;;;2.50;;
11006;SDS011;8186;57.652;11.968;2024-01-07T01:13:08;3.73;;;2.73;;
11006;SDS011;8186;57.652;11.968;2024-01-07T01:15:35;3.47;;;2.63;;
11006;SDS011;8186;57.652;11.968;2024-01-07T01:18:02;4.23;;;3.00;;
11006;SDS011;8186;57.652;11.968;2024-01-07T01:20:29;3.13;;;2.70;;
11006;SDS011;8186;57.652;11.968;2024-01-07T01:22:55;4.27;;;2.90;;
11006;SDS011;8186;57.652;11.968;2024-01-07T01:25:22;6.53;;;3.17;;
11006;SDS011;8186;57.652;11.968;2024-01-07T01:27:49;4.77;;;2.83;;
11006;SDS011;8186;57.652;11.968;2024-01-07T01:30:17;4.77;;;2.60;;
11006;SDS011;8186;57.652;11.968;2024-01-07T01:32:44;4.43;;;2.80;;
11006;SDS011;8186;57.652;11.968;2024-01-07T01:35:10;3.93;;;2.40;;
11006;SDS011;8186;57.652;11.968;2024-01-07T01:37:37;3.43;;;2.80;;
11006;SDS011;8186;57.652;11.968;2024-01-07T01:40:04;4.00;;;2.73;;
11006;SDS011;8186;57.652;11.968;2024-01-07T01:42:32;2.90;;;2.20;;
11006;SDS011;8186;57.652;11.968;2024-01-07T01:44:59;2.53;;;2.07;;
11006;SDS011;8186;57.652;11.968;2024-01-07T01:47:28;4.97;;;2.90;;
11006;SDS011;8186;57.652;11.968;2024-01-07T01:49:55;3.60;;;2.53;;
11006;SDS011;8186;57.652;11.968;2024-01-07T01:52:22;4.77;;;2.70;;
11006;SDS011;8186;57.652;11.968;2024-01-07T01:54:49;3.40;;;2.63;;
11006;SDS011;8186;57.652;11.968;2024-01-07T01:57:17;5.30;;;2.67;;
11006;SDS011;8186;57.652;11.968;2024-01-07T01:59:48;2.50;;;2.17;;
11006;SDS011;8186;57.652;11.968;2024-01-07T02:02:14;3.80;;;2.60;;
11006;SDS011;8186;57.652;11.968;2024-01-07T02:04:43;3.67;;;2.67;;
11006;SDS011;8186;57.652;11.968;2024-01-07T02:07:12;3.67;;;2.40;;
11006;SDS011;8186;57.652;11.968;2024-01-07T02:09:39;2.67;;;2.30;;
11006;SDS011;8186;57.652;11.968;2024-01-07T02:12:06;3.63;;;2.47;;
11006;SDS011;8186;57.652;11.968;2024-01-07T02:14:37;2.83;;;2.00;;
11006;SDS011;8186;57.652;11.968;2024-01-07T02:17:04;3.33;;;2.43;;
11006;SDS011;8186;57.652;11.968;2024-01-07T02:19:31;3.23;;;2.57;;
11006;SDS011;8186;57.652;11.968;2024-01-07T02:21:59;3.87;;;2.47;;
11006;SDS011;8186;57.652;11.968;2024-01-07T02:24:27;4.50;;;2.67;;
11006;SDS011;8186;57.652;11.968;2024-01-07T02:26:55;2.73;;;2.10;;
11006;SDS011;8186;57.652;11.968;2024-01-07T02:29:22;3.90;;;2.50;;
11006;SDS011;8186;57.652;11.968;2024-01-07T02:31:49;4.57;;;2.53;;
11006;SDS011;8186;57.652;11.968;2024-01-07T02:34:16;3.13;;;2.20;;
11006;SDS011;8186;57.652;11.968;2024-01-07T02:36:42;3.37;;;2.10;;
11006;SDS011;8186;57.652;11.968;2024-01-07T02:39:09;3.33;;;2.67;;
11006;SDS011;8186;57.652;11.968;2024-01-07T02:41:37;3.70;;;2.50;;
11006;SDS011;8186;57.652;11.968;2024-01-07T02:44:04;3.60;;;2.40;;
11006;SDS011;8186;57.652;11.968;2024-01-07T02:46:31;2.83;;;2.30;;
11006;SDS011;8186;57.652;11.968;2024-01-07T02:48:57;2.90;;;1.97;;
11006;SDS011;8186;57.652;11.968;2024-01-07T02:51:24;3.00;;;2.20;;
11006;SDS011;8186;57.652;11.968;2024-01-07T02:53:51;3.37;;;2.07;;
11006;SDS011;8186;57.652;11.968;2024-01-07T02:56:18;3.07;;;2.37;;
11006;SDS011;8186;57.652;11.968;2024-01-07T02:58:46;3.87;;;2.30;;
11006;SDS011;8186;57.652;11.968;2024-01-07T03:01:13;3.77;;;2.63;;
11006;SDS011;8186;57.652;11.968;2024-01-07T03:03:39;3.23;;;2.20;;
11006;SDS011;8186;57.652;11.968;2024-01-07T03:06:06;3.67;;;2.77;;
11006;SDS011;8186;57.652;11.968;2024-01-07T03:08:33;3.50;;;2.13;;
11006;SDS011;8186;57.652;11.968;2024-01-07T03:11:03;3.27;;;2.33;;
11006;SDS011;8186;57.652;11.968;2024-01-07T03:13:31;2.97;;;2.20;;
11006;SDS011;8186;57.652;11.968;2024-01-07T03:15:59;2.57;;;1.80;;
11006;SDS011;8186;57.652;11.968;2024-01-07T03:18:26;3.07;;;2.40;;
11006;SDS011;8186;57.652;11.968;2024-01-07T03:20:53;3.23;;;2.53;;
11006;SDS011;8186;57.652;11.968;2024-01-07T03:23:20;2.50;;;2.00;;
11006;SDS011;8186;57.652;11.968;2024-01-07T03:25:46;3.33;;;2.40;;
11006;SDS011;8186;57.652;11.968;2024-01-07T03:28:13;3.37;;;2.23;;
11006;SDS011;8186;57.652;11.968;2024-01-07T03:30:40;3.20;;;2.43;;
11006;SDS011;8186;57.652;11.968;2024-01-07T03:33:09;3.20;;;2.20;;
11006;SDS011;8186;57.652;11.968;2024-01-07T03:35:35;4.57;;;2.20;;
11006;SDS011;8186;57.652;11.968;2024-01-07T03:38:02;3.07;;;2.30;;
11006;SDS011;8186;57.652;11.968;2024-01-07T03:40:29;3.57;;;2.23;;
11006;SDS011;8186;57.652;11.968;2024-01-07T03:42:56;3.27;;;2.07;;
11006;SDS011;8186;57.652;11.968;2024-01-07T03:45:23;2.53;;;2.17;;
11006;SDS011;8186;57.652;11.968;2024-01-07T03:47:49;4.03;;;2.33;;
11006;SDS011;8186;57.652;11.968;2024-01-07T03:50:18;2.60;;;1.83;;
11006;SDS011;8186;57.652;11.968;2024-01-07T03:52:45;2.97;;;2.30;;
11006;SDS011;8186;57.652;11.968;2024-01-07T03:55:11;3.17;;;2.23;;
11006;SDS011;8186;57.652;11.968;2024-01-07T03:57:38;1.93;;;1.80;;
11006;SDS011;8186;57.652;11.968;2024-01-07T04:00:05;2.73;;;2.10;;
11006;SDS011;8186;57.652;11.968;2024-01-07T04:02:34;3.13;;;2.47;;
11006;SDS011;8186;57.652;11.968;2024-01-07T04:05:01;3.20;;;2.40;;
11006;SDS011;8186;57.652;11.968;2024-01-07T04:07:29;3.30;;;2.40;;
11006;SDS011;8186;57.652;11.968;2024-01-07T04:09:56;2.67;;;1.90;;
11006;SDS011;8186;57.652;11.968;2024-01-07T04:12:23;3.60;;;2.50;;
11006;SDS011;8186;57.652;11.968;2024-01-07T04:14:50;4.10;;;2.13;;
11006;SDS011;8186;57.652;11.968;2024-01-07T04:17:16;3.67;;;2.40;;
11006;SDS011;8186;57.652;11.968;2024-01-07T04:19:43;2.53;;;2.03;;
11006;SDS011;8186;57.652;11.968;2024-01-07T04:22:10;2.47;;;1.87;;
11006;SDS011;8186;57.652;11.968;2024-01-07T04:24:40;2.73;;;1.93;;
11006;SDS011;8186;57.652;11.968;2024-01-07T04:27:06;3.23;;;2.57;;
11006;SDS011;8186;57.652;11.968;2024-01-07T04:29:33;2.63;;;2.03;;
11006;SDS011;8186;57.652;11.968;2024-01-07T04:32:00;2.27;;;1.77;;
11006;SDS011;8186;57.652;11.968;2024-01-07T04:34:27;3.50;;;2.43;;
11006;SDS011;8186;57.652;11.968;2024-01-07T04:36:53;2.67;;;2.10;;
11006;SDS011;8186;57.652;11.968;2024-01-07T04:39:20;2.47;;;2.00;;
11006;SDS011;8186;57.652;11.968;2024-01-07T04:41:48;3.80;;;2.20;;
11006;SDS011;8186;57.652;11.968;2024-01-07T04:44:15;2.70;;;2.00;;
11006;SDS011;8186;57.652;11.968;2024-01-07T04:46:42;2.73;;;2.30;;
11006;SDS011;8186;57.652;11.968;2024-01-07T04:49:09;3.63;;;2.20;;
11006;SDS011;8186;57.652;11.968;2024-01-07T04:51:35;3.87;;;2.60;;
11006;SDS011;8186;57.652;11.968;2024-01-07T04:54:02;4.47;;;2.30;;
11006;SDS011;8186;57.652;11.968;2024-01-07T04:56:31;3.40;;;2.23;;
11006;SDS011;8186;57.652;11.968;2024-01-07T04:58:59;6.10;;;2.80;;
11006;SDS011;8186;57.652;11.968;2024-01-07T05:01:25;3.20;;;2.23;;
11006;SDS011;8186;57.652;11.968;2024-01-07T05:03:52;3.23;;;2.53;;
11006;SDS011;8186;57.652;11.968;2024-01-07T05:06:19;3.53;;;2.37;;
11006;SDS011;8186;57.652;11.968;2024-01-07T05:08:46;3.17;;;2.20;;
11006;SDS011;8186;57.652;11.968;2024-01-07T05:11:12;3.10;;;2.10;;
11006;SDS011;8186;57.652;11.968;2024-01-07T05:13:39;2.80;;;1.90;;
11006;SDS011;8186;57.652;11.968;2024-01-07T05:16:07;3.93;;;2.00;;
11006;SDS011;8186;57.652;11.968;2024-01-07T05:18:34;3.53;;;2.40;;
11006;SDS011;8186;57.652;11.968;2024-01-07T05:21:01;3.90;;;2.53;;
11006;SDS011;8186;57.652;11.968;2024-01-07T05:23:28;2.93;;;2.10;;
11006;SDS011;8186;57.652;11.968;2024-01-07T05:25:54;4.10;;;2.57;;
11006;SDS011;8186;57.652;11.968;2024-01-07T05:28:21;3.37;;;2.43;;
11006;SDS011;8186;57.652;11.968;2024-01-07T05:30:48;3.00;;;2.27;;
11006;SDS011;8186;57.652;11.968;2024-01-07T05:33:16;2.40;;;2.10;;
11006;SDS011;8186;57.652;11.968;2024-01-07T05:35:43;3.67;;;2.40;;
11006;SDS011;8186;57.652;11.968;2024-01-07T05:38:10;3.53;;;2.33;;
11006;SDS011;8186;57.652;11.968;2024-01-07T05:40:37;3.40;;;2.30;;
11006;SDS011;8186;57.652;11.968;2024-01-07T05:43:04;4.00;;;2.43;;
11006;SDS011;8186;57.652;11.968;2024-01-07T05:45:30;3.17;;;2.37;;
11006;SDS011;8186;57.652;11.968;2024-01-07T05:47:57;2.60;;;1.83;;
11006;SDS011;8186;57.652;11.968;2024-01-07T05:50:25;3.53;;;2.07;;
11006;SDS011;8186;57.652;11.968;2024-01-07T05:52:52;3.37;;;2.33;;
11006;SDS011;8186;57.652;11.968;2024-01-07T05:55:19;3.67;;;2.77;;
11006;SDS011;8186;57.652;11.968;2024-01-07T05:57:45;3.23;;;2.10;;
11006;SDS011;8186;57.652;11.968;2024-01-07T06:00:12;3.60;;;2.40;;
11006;SDS011;8186;57.652;11.968;2024-01-07T06:02:40;3.03;;;2.17;;
11006;SDS011;8186;57.652;11.968;2024-01-07T06:05:07;3.47;;;2.40;;
11006;SDS011;8186;57.652;11.968;2024-01-07T06:07:35;2.33;;;2.10;;
11006;SDS011;8186;57.652;11.968;2024-01-07T06:10:02;3.07;;;2.33;;
11006;SDS011;8186;57.652;11.968;2024-01-07T06:12:31;2.97;;;2.00;;
11006;SDS011;8186;57.652;11.968;2024-01-07T06:14:58;3.17;;;2.20;;
11006;SDS011;8186;57.652;11.968;2024-01-07T06:17:25;2.60;;;2.03;;
11006;SDS011;8186;57.652;11.968;2024-01-07T06:19:51;4.37;;;2.20;;
11006;SDS011;8186;57.652;11.968;2024-01-07T06:22:18;3.43;;;2.13;;
11006;SDS011;8186;57.652;11.968;2024-01-07T06:24:46;3.70;;;2.30;;
11006;SDS011;8186;57.652;11.968;2024-01-07T06:27:13;2.40;;;2.20;;
11006;SDS011;8186;57.652;11.968;2024-01-07T06:29:40;3.47;;;2.37;;
11006;SDS011;8186;57.652;11.968;2024-01-07T06:32:06;2.97;;;2.10;;
11006;SDS011;8186;57.652;11.968;2024-01-07T06:34:35;4.10;;;2.40;;
11006;SDS011;8186;57.652;11.968;2024-01-07T06:37:02;2.60;;;2.03;;
11006;SDS011;8186;57.652;11.968;2024-01-07T06:39:29;2.83;;;2.20;;
11006;SDS011;8186;57.652;11.968;2024-01-07T06:41:58;2.63;;;2.00;;
11006;SDS011;8186;57.652;11.968;2024-01-07T06:44:27;2.93;;;2.00;;
11006;SDS011;8186;57.652;11.968;2024-01-07T06:46:54;3.20;;;2.40;;
11006;SDS011;8186;57.652;11.968;2024-01-07T06:49:21;3.17;;;2.37;;
11006;SDS011;8186;57.652;11.968;2024-01-07T06:51:47;4.30;;;2.53;;
11006;SDS011;8186;57.652;11.968;2024-01-07T06:54:14;2.73;;;2.00;;
11006;SDS011;8186;57.652;11.968;2024-01-07T06:56:40;4.00;;;2.17;;
11006;SDS011;8186;57.652;11.968;2024-01-07T06:59:09;3.03;;;2.23;;
11006;SDS011;8186;57.652;11.968;2024-01-07T07:01:36;2.77;;;2.10;;
11006;SDS011;8186;57.652;11.968;2024-01-07T07:04:03;3.57;;;2.27;;
11006;SDS011;8186;57.652;11.968;2024-01-07T07:06:30;3.83;;;2.83;;
11006;SDS011;8186;57.652;11.968;2024-01-07T07:08:57;3.13;;;2.20;;
11006;SDS011;8186;57.652;11.968;2024-01-07T07:11:24;3.33;;;2.23;;
11006;SDS011;8186;57.652;11.968;2024-01-07T07:13:50;3.17;;;2.63;;
11006;SDS011;8186;57.652;11.968;2024-01-07T07:16:18;3.57;;;2.33;;
11006;SDS011;8186;57.652;11.968;2024-01-07T07:18:45;4.23;;;2.50;;
11006;SDS011;8186;57.652;11.968;2024-01-07T07:21:12;3.20;;;2.30;;
11006;SDS011;8186;57.652;11.968;2024-01-07T07:23:39;4.03;;;2.63;;
11006;SDS011;8186;57.652;11.968;2024-01-07T07:26:05;4.90;;;3.57;;
11006;SDS011;8186;57.652;11.968;2024-01-07T07:28:33;3.73;;;2.53;;
11006;SDS011;8186;57.652;11.968;2024-01-07T07:31:00;3.87;;;2.43;;
11006;SDS011;8186;57.652;11.968;2024-01-07T07:33:28;3.67;;;2.60;;
11006;SDS011;8186;57.652;11.968;2024-01-07T07:35:55;5.27;;;2.90;;
11006;SDS011;8186;57.652;11.968;2024-01-07T07:38:21;4.37;;;2.60;;
11006;SDS011;8186;57.652;11.968;2024-01-07T07:40:48;4.03;;;2.30;;
11006;SDS011;8186;57.652;11.968;2024-01-07T07:43:18;3.40;;;2.40;;
11006;SDS011;8186;57.652;11.968;2024-01-07T07:45:44;4.00;;;2.57;;
11006;SDS011;8186;57.652;11.968;2024-01-07T07:48:11;3.87;;;2.77;;
11006;SDS011;8186;57.652;11.968;2024-01-07T07:50:39;4.23;;;2.83;;
11006;SDS011;8186;57.652;11.968;2024-01-07T07:53:06;3.20;;;2.47;;
11006;SDS011;8186;57.652;11.968;2024-01-07T07:55:33;3.53;;;2.60;;
11006;SDS011;8186;57.652;11.968;2024-01-07T07:58:00;4.73;;;3.10;;
11006;SDS011;8186;57.652;11.968;2024-01-07T08:00:27;4.47;;;2.63;;
11006;SDS011;8186;57.652;11.968;2024-01-07T08:02:54;3.67;;;2.67;;
11006;SDS011;8186;57.652;11.968;2024-01-07T08:05:21;3.23;;;2.30;;
11006;SDS011;8186;57.652;11.968;2024-01-07T08:07:49;4.50;;;2.50;;
11006;SDS011;8186;57.652;11.968;2024-01-07T08:10:16;4.13;;;2.67;;
11006;SDS011;8186;57.652;11.968;2024-01-07T08:12:42;3.00;;;2.20;;
11006;SDS011;8186;57.652;11.968;2024-01-07T08:15:09;3.67;;;2.53;;
11006;SDS011;8186;57.652;11.968;2024-01-07T08:17:37;4.23;;;3.00;;
11006;SDS011;8186;57.652;11.968;2024-01-07T08:20:04;3.60;;;2.43;;
11006;SDS011;8186;57.652;11.968;2024-01-07T08:22:32;4.77;;;2.77;;
11006;SDS011;8186;57.652;11.968;2024-01-07T08:25:00;4.83;;;3.03;;
11006;SDS011;8186;57.652;11.968;2024-01-07T08:27:27;4.30;;;2.50;;
11006;SDS011;8186;57.652;11.968;2024-01-07T08:29:54;4.10;;;3.27;;
11006;SDS011;8186;57.652;11.968;2024-01-07T08:32:21;3.73;;;2.60;;
11006;SDS011;8186;57.652;11.968;2024-01-07T08:34:48;5.73;;;3.17;;
11006;SDS011;8186;57.652;11.968;2024-01-07T08:37:14;4.40;;;3.10;;
11006;SDS011;8186;57.652;11.968;2024-01-07T08:39:41;4.17;;;2.57;;
11006;SDS011;8186;57.652;11.968;2024-01-07T08:42:09;5.27;;;3.37;;
11006;SDS011;8186;57.652;11.968;2024-01-07T08:44:36;4.53;;;3.10;;
11006;SDS011;8186;57.652;11.968;2024-01-07T08:47:04;5.07;;;3.00;;
11006;SDS011;8186;57.652;11.968;2024-01-07T08:49:31;4.40;;;2.67;;
11006;SDS011;8186;57.652;11.968;2024-01-07T08:51:59;5.53;;;3.13;;
11006;SDS011;8186;57.652;11.968;2024-01-07T08:54:25;3.60;;;2.87;;
11006;SDS011;8186;57.652;11.968;2024-01-07T08:56:52;4.70;;;3.07;;
11006;SDS011;8186;57.652;11.968;2024-01-07T08:59:21;5.53;;;3.20;;
11006;SDS011;8186;57.652;11.968;2024-01-07T09:01:47;3.87;;;2.80;;
11006;SDS011;8186;57.652;11.968;2024-01-07T09:04:14;3.73;;;2.60;;
11006;SDS011;8186;57.652;11.968;2024-01-07T09:06:42;4.00;;;3.00;;
11006;SDS011;8186;57.652;11.968;2024-01-07T09:09:09;3.47;;;2.53;;
11006;SDS011;8186;57.652;11.968;2024-01-07T09:11:36;4.87;;;3.10;;
11006;SDS011;8186;57.652;11.968;2024-01-07T09:14:03;3.83;;;3.10;;
11006;SDS011;8186;57.652;11.968;2024-01-07T09:16:31;4.40;;;3.30;;
11006;SDS011;8186;57.652;11.968;2024-01-07T09:18:58;4.10;;;2.80;;
11006;SDS011;8186;57.652;11.968;2024-01-07T09:21:25;4.93;;;3.50;;
11006;SDS011;8186;57.652;11.968;2024-01-07T09:23:52;5.00;;;3.90;;
11006;SDS011;8186;57.652;11.968;2024-01-07T09:26:18;7.33;;;4.23;;
11006;SDS011;8186;57.652;11.968;2024-01-07T09:28:45;8.17;;;3.93;;
11006;SDS011;8186;57.652;11.968;2024-01-07T09:31:12;5.20;;;3.70;;
11006;SDS011;8186;57.652;11.968;2024-01-07T09:33:40;6.23;;;3.83;;
11006;SDS011;8186;57.652;11.968;2024-01-07T09:36:07;5.83;;;3.70;;
11006;SDS011;8186;57.652;11.968;2024-01-07T09:38:34;5.83;;;3.60;;
11006;SDS011;8186;57.652;11.968;2024-01-07T09:41:01;6.13;;;3.80;;
11006;SDS011;8186;57.652;11.968;2024-01-07T09:43:29;5.10;;;3.73;;
11006;SDS011;8186;57.652;11.968;2024-01-07T09:45:56;5.13;;;3.77;;
11006;SDS011;8186;57.652;11.968;2024-01-07T09:48:23;5.33;;;3.30;;
11006;SDS011;8186;57.652;11.968;2024-01-07T09:50:51;6.27;;;3.87;;
11006;SDS011;8186;57.652;11.968;2024-01-07T09:53:19;6.53;;;3.90;;
11006;SDS011;8186;57.652;11.968;2024-01-07T09:55:47;6.23;;;3.80;;
11006;SDS011;8186;57.652;11.968;2024-01-07T09:58:19;4.53;;;3.27;;
11006;SDS011;8186;57.652;11.968;2024-01-07T10:00:46;5.47;;;3.70;;
11006;SDS011;8186;57.652;11.968;2024-01-07T10:03:13;5.30;;;3.33;;
11006;SDS011;8186;57.652;11.968;2024-01-07T10:05:40;5.93;;;3.00;;
11006;SDS011;8186;57.652;11.968;2024-01-07T10:08:08;4.63;;;3.27;;
11006;SDS011;8186;57.652;11.968;2024-01-07T10:10:35;4.17;;;3.23;;
11006;SDS011;8186;57.652;11.968;2024-01-07T10:13:02;4.03;;;3.10;;
11006;SDS011;8186;57.652;11.968;2024-01-07T10:15:31;4.07;;;3.40;;
11006;SDS011;8186;57.652;11.968;2024-01-07T10:18:02;5.57;;;3.67;;
11006;SDS011;8186;57.652;11.968;2024-01-07T10:20:31;4.60;;;3.40;;
11006;SDS011;8186;57.652;11.968;2024-01-07T10:22:59;5.20;;;3.50;;
11006;SDS011;8186;57.652;11.968;2024-01-07T10:25:27;4.23;;;3.53;;
11006;SDS011;8186;57.652;11.968;2024-01-07T10:27:58;4.67;;;3.13;;
11006;SDS011;8186;57.652;11.968;2024-01-07T10:30:25;4.87;;;3.43;;
11006;SDS011;8186;57.652;11.968;2024-01-07T10:32:55;6.37;;;3.57;;
11006;SDS011;8186;57.652;11.968;2024-01-07T10:35:24;4.20;;;3.27;;
11006;SDS011;8186;57.652;11.968;2024-01-07T10:37:54;4.77;;;3.20;;
11006;SDS011;8186;57.652;11.968;2024-01-07T10:40:21;4.23;;;2.80;;
11006;SDS011;8186;57.652;11.968;2024-01-07T10:42:49;4.57;;;2.93;;
11006;SDS011;8186;57.652;11.968;2024-01-07T10:45:17;3.13;;;2.70;;
11006;SDS011;8186;57.652;11.968;2024-01-07T10:47:45;4.60;;;2.63;;
11006;SDS011;8186;57.652;11.968;2024-01-07T10:50:15;4.97;;;3.33;;
11006;SDS011;8186;57.652;11.968;2024-01-07T10:52:43;4.03;;;2.73;;
11006;SDS011;8186;57.652;11.968;2024-01-07T10:55:13;5.63;;;4.03;;
11006;SDS011;8186;57.652;11.968;2024-01-07T10:57:42;4.43;;;3.27;;
11006;SDS011;8186;57.652;11.968;2024-01-07T11:00:11;4.50;;;3.20;;
11006;SDS011;8186;57.652;11.968;2024-01-07T11:02:47;4.83;;;3.30;;
11006;SDS011;8186;57.652;11.968;2024-01-07T11:05:20;4.47;;;3.30;;
11006;SDS011;8186;57.652;11.968;2024-01-07T11:07:54;6.57;;;4.00;;
11006;SDS011;8186;57.652;11.968;2024-01-07T11:10:25;4.90;;;3.43;;
11006;SDS011;8186;57.652;11.968;2024-01-07T11:12:59;5.17;;;3.00;;
11006;SDS011;8186;57.652;11.968;2024-01-07T11:18:22;4.53;;;3.10;;
11006;SDS011;8186;57.652;11.968;2024-01-07T11:20:49;5.23;;;3.70;;
11006;SDS011;8186;57.652;11.968;2024-01-07T11:23:28;4.00;;;2.97;;
11006;SDS011;8186;57.652;11.968;2024-01-07T11:25:58;5.50;;;3.43;;
11006;SDS011;8186;57.652;11.968;2024-01-07T11:31:13;4.47;;;3.20;;
11006;SDS011;8186;57.652;11.968;2024-01-07T11:33:41;5.10;;;3.30;;
11006;SDS011;8186;57.652;11.968;2024-01-07T11:36:10;3.67;;;3.27;;
11006;SDS011;8186;57.652;11.968;2024-01-07T11:38:38;4.30;;;3.10;;
11006;SDS011;8186;57.652;11.968;2024-01-07T11:41:05;4.33;;;3.43;;
11006;SDS011;8186;57.652;11.968;2024-01-07T11:43:32;4.33;;;3.27;;
11006;SDS011;8186;57.652;11.968;2024-01-07T11:46:00;4.87;;;3.07;;
11006;SDS011;8186;57.652;11.968;2024-01-07T11:48:28;4.87;;;3.30;;
11006;SDS011;8186;57.652;11.968;2024-01-07T11:50:55;4.30;;;3.10;;
11006;SDS011;8186;57.652;11.968;2024-01-07T11:53:22;4.40;;;3.10;;
11006;SDS011;8186;57.652;11.968;2024-01-07T11:55:49;4.50;;;3.00;;
11006;SDS011;8186;57.652;11.968;2024-01-07T11:58:16;5.13;;;3.47;;
11006;SDS011;8186;57.652;11.968;2024-01-07T12:00:42;5.17;;;3.27;;
11006;SDS011;8186;57.652;11.968;2024-01-07T12:03:10;4.83;;;3.73;;
11006;SDS011;8186;57.652;11.968;2024-01-07T12:05:38;4.37;;;3.20;;
11006;SDS011;8186;57.652;11.968;2024-01-07T12:08:05;4.17;;;3.20;;
11006;SDS011;8186;57.652;11.968;2024-01-07T12:10:33;4.33;;;3.23;;
11006;SDS011;8186;57.652;11.968;2024-01-07T12:13:00;4.40;;;3.00;;
11006;SDS011;8186;57.652;11.968;2024-01-07T12:15:28;4.37;;;3.13;;
11006;SDS011;8186;57.652;11.968;2024-01-07T12:17:56;5.30;;;3.40;;
11006;SDS011;8186;57.652;11.968;2024-01-07T12:20:23;4.50;;;3.17;;
11006;SDS011;8186;57.652;11.968;2024-01-07T12:22:54;4.67;;;3.00;;
11006;SDS011;8186;57.652;11.968;2024-01-07T12:25:22;4.00;;;2.97;;
11006;SDS011;8186;57.652;11.968;2024-01-07T12:27:50;4.33;;;3.10;;
11006;SDS011;8186;57.652;11.968;2024-01-07T12:30:19;3.70;;;2.90;;
11006;SDS011;8186;57.652;11.968;2024-01-07T12:32:46;4.03;;;2.63;;
11006;SDS011;8186;57.652;11.968;2024-01-07T12:35:13;5.67;;;3.90;;
11006;SDS011;8186;57.652;11.968;2024-01-07T12:37:40;4.77;;;3.27;;
11006;SDS011;8186;57.652;11.968;2024-01-07T12:40:10;4.07;;;3.07;;
11006;SDS011;8186;57.652;11.968;2024-01-07T12:42:37;4.80;;;3.53;;
11006;SDS011;8186;57.652;11.968;2024-01-07T12:45:09;4.57;;;3.10;;
11006;SDS011;8186;57.652;11.968;2024-01-07T12:47:37;5.70;;;3.93;;
11006;SDS011;8186;57.652;11.968;2024-01-07T12:50:04;4.90;;;3.63;;
11006;SDS011;8186;57.652;11.968;2024-01-07T12:52:31;4.13;;;3.50;;
11006;SDS011;8186;57.652;11.968;2024-01-07T12:54:58;3.33;;;2.90;;
11006;SDS011;8186;57.652;11.968;2024-01-07T12:57:26;5.00;;;3.43;;
11006;SDS011;8186;57.652;11.968;2024-01-07T12:59:52;4.40;;;3.40;;
11006;SDS011;8186;57.652;11.968;2024-01-07T13:02:19;5.07;;;3.70;;
11006;SDS011;8186;57.652;11.968;2024-01-07T13:04:46;5.27;;;3.63;;
11006;SDS011;8186;57.652;11.968;2024-01-07T13:07:13;4.53;;;3.47;;
11006;SDS011;8186;57.652;11.968;2024-01-07T13:09:40;4.50;;;3.87;;
11006;SDS011;8186;57.652;11.968;2024-01-07T13:12:07;3.83;;;3.43;;
11006;SDS011;8186;57.652;11.968;2024-01-07T13:14:35;5.60;;;4.03;;
11006;SDS011;8186;57.652;11.968;2024-01-07T13:17:02;5.40;;;3.23;;
11006;SDS011;8186;57.652;11.968;2024-01-07T13:19:29;5.50;;;3.90;;
11006;SDS011;8186;57.652;11.968;2024-01-07T13:21:56;5.47;;;4.03;;
11006;SDS011;8186;57.652;11.968;2024-01-07T13:24:23;4.87;;;3.60;;
11006;SDS011;8186;57.652;11.968;2024-01-07T13:26:50;4.43;;;3.57;;
11006;SDS011;8186;57.652;11.968;2024-01-07T13:29:17;5.77;;;3.87;;
11006;SDS011;8186;57.652;11.968;2024-01-07T13:31:45;5.23;;;3.80;;
11006;SDS011;8186;57.652;11.968;2024-01-07T13:34:11;5.30;;;4.23;;
11006;SDS011;8186;57.652;11.968;2024-01-07T13:36:40;6.20;;;4.33;;
11006;SDS011;8186;57.652;11.968;2024-01-07T13:39:07;5.53;;;3.70;;
11006;SDS011;8186;57.652;11.968;2024-01-07T13:41:34;6.83;;;3.50;;
11006;SDS011;8186;57.652;11.968;2024-01-07T13:44:01;4.43;;;2.97;;
11006;SDS011;8186;57.652;11.968;2024-01-07T13:46:28;4.67;;;3.40;;
11006;SDS011;8186;57.652;11.968;2024-01-07T13:48:56;4.80;;;3.53;;
11006;SDS011;8186;57.652;11.968;2024-01-07T13:51:23;3.87;;;3.10;;
11006;SDS011;8186;57.652;11.968;2024-01-07T13:53:51;6.20;;;3.73;;
11006;SDS011;8186;57.652;11.968;2024-01-07T13:56:17;4.87;;;3.20;;
11006;SDS011;8186;57.652;11.968;2024-01-07T13:58:44;4.77;;;3.67;;
11006;SDS011;8186;57.652;11.968;2024-01-07T14:01:12;5.40;;;3.60;;
11006;SDS011;8186;57.652;11.968;2024-01-07T14:03:41;4.47;;;2.90;;
11006;SDS011;8186;57.652;11.968;2024-01-07T14:06:09;4.67;;;2.93;;
11006;SDS011;8186;57.652;11.968;2024-01-07T14:08:36;4.63;;;3.10;;
11006;SDS011;8186;57.652;11.968;2024-01-07T14:11:03;3.60;;;3.20;;
11006;SDS011;8186;57.652;11.968;2024-01-07T14:13:32;3.20;;;2.60;;
11006;SDS011;8186;57.652;11.968;2024-01-07T14:15:59;4.37;;;3.17;;
11006;SDS011;8186;57.652;11.968;2024-01-07T14:18:26;5.30;;;3.10;;
11006;SDS011;8186;57.652;11.968;2024-01-07T14:20:53;5.53;;;3.93;;
11006;SDS011;8186;57.652;11.968;2024-01-07T14:23:21;5.80;;;4.00;;
11006;SDS011;8186;57.652;11.968;2024-01-07T14:25:48;5.43;;;3.83;;
11006;SDS011;8186;57.652;11.968;2024-01-07T14:28:15;4.63;;;3.70;;
11006;SDS011;8186;57.652;11.968;2024-01-07T14:30:41;5.40;;;3.60;;
11006;SDS011;8186;57.652;11.968;2024-01-07T14:33:08;4.90;;;3.70;;
11006;SDS011;8186;57.652;11.968;2024-01-07T14:35:35;5.53;;;4.13;;
11006;SDS011;8186;57.652;11.968;2024-01-07T14:38:02;6.17;;;4.13;;
11006;SDS011;8186;57.652;11.968;2024-01-07T14:40:30;5.40;;;4.00;;
11006;SDS011;8186;57.652;11.968;2024-01-07T14:42:57;5.53;;;3.80;;
11006;SDS011;8186;57.652;11.968;2024-01-07T14:45:24;5.03;;;3.80;;
11006;SDS011;8186;57.652;11.968;2024-01-07T14:47:51;5.30;;;3.97;;
11006;SDS011;8186;57.652;11.968;2024-01-07T14:50:18;6.13;;;3.77;;
11006;SDS011;8186;57.652;11.968;2024-01-07T14:52:45;5.37;;;4.00;;
11006;SDS011;8186;57.652;11.968;2024-01-07T14:55:12;4.97;;;3.67;;